Terminal Aerodrome Forecast
Issued by NWS Grand Forks, ND

Home | Current Version | Previous Version | Text Only | Print | Product List | Glossary On
Versions: 1 2 3 4 5 6 7 8 9 10 11 12 13 14 15 16 17 18 19 20 21 22 23
000
FTUS43 KFGF 140537
TAFFAR
TAF
KFAR 140537Z 1406/1506 36010KT P6SM BKN015
      TEMPO 1406/1408 3SM -SN
     FM141000 28004KT P6SM OVC020
     FM141600 35010G18KT P6SM OVC025
     FM150000 33006KT P6SM BKN035=

USA.gov is the U.S. government's official web portal to all federal, state and local government web resources and services.